createdAt,value
2018-06-17T00:03:17.744Z,18.72
2018-06-17T00:08:12.249Z,18.63
2018-06-17T00:13:06.792Z,18.52
2018-06-17T00:18:01.213Z,18.58
2018-06-17T00:22:55.667Z,18.39
2018-06-17T00:27:50.102Z,18.20
2018-06-17T00:32:44.509Z,18.12
2018-06-17T00:37:38.973Z,18.06
2018-06-17T00:42:33.402Z,18.04
2018-06-17T00:47:27.845Z,18.02
2018-06-17T00:52:22.283Z,17.99
2018-06-17T00:57:33.622Z,18.03
2018-06-17T01:02:28.140Z,17.89
2018-06-17T01:07:22.657Z,17.63
2018-06-17T01:12:17.160Z,17.52
2018-06-17T01:17:11.577Z,17.47
2018-06-17T01:22:06.137Z,17.58
2018-06-17T01:27:00.564Z,17.47
2018-06-17T01:31:54.991Z,17.46
2018-06-17T01:36:49.428Z,17.52
2018-06-17T01:41:43.839Z,17.47
2018-06-17T01:46:38.296Z,17.41
2018-06-17T01:51:32.749Z,17.44
2018-06-17T01:56:27.220Z,17.39
2018-06-17T02:01:21.678Z,17.43
2018-06-17T02:06:21.223Z,17.47
2018-06-17T02:11:20.873Z,17.37
2018-06-17T02:16:15.340Z,17.33
2018-06-17T02:21:09.819Z,17.30
2018-06-17T02:26:04.249Z,17.29
2018-06-17T02:30:58.788Z,17.38
2018-06-17T02:35:53.240Z,17.39
2018-06-17T02:40:47.682Z,17.40
2018-06-17T02:45:47.206Z,17.39
2018-06-17T02:50:46.817Z,17.42
2018-06-17T02:55:41.336Z,17.37
2018-06-17T03:00:35.790Z,17.38
2018-06-17T03:05:30.225Z,17.40
2018-06-17T03:10:24.700Z,17.37
2018-06-17T03:15:19.123Z,17.27
2018-06-17T03:20:13.536Z,17.14
2018-06-17T03:25:13.510Z,17.07
2018-06-17T03:30:13.082Z,17.02
2018-06-17T03:35:13.321Z,17.14
2018-06-17T03:40:07.765Z,17.17
2018-06-17T03:45:02.210Z,17.14
2018-06-17T03:49:56.618Z,17.19
2018-06-17T03:54:51.174Z,17.69
2018-06-17T03:59:45.613Z,18.38
2018-06-17T04:04:45.340Z,18.71
2018-06-17T04:09:39.728Z,19.08
2018-06-17T04:14:34.156Z,19.41
2018-06-17T04:19:28.285Z,19.68
2018-06-17T04:24:22.695Z,19.91
2018-06-17T04:29:17.091Z,19.96
2018-06-17T04:34:11.566Z,20.54
2018-06-17T04:39:08.404Z,20.84
2018-06-17T04:44:02.847Z,21.17
2018-06-17T04:48:57.246Z,21.04
2018-06-17T04:53:51.656Z,21.20
2018-06-17T04:58:46.060Z,21.95
2018-06-17T05:03:40.473Z,22.49
2018-06-17T05:08:34.953Z,23.15
2018-06-17T05:13:29.368Z,24.10
2018-06-17T05:18:23.784Z,24.82
2018-06-17T05:23:18.211Z,25.76
2018-06-17T05:28:12.705Z,27.21
2018-06-17T05:33:07.110Z,28.47
2018-06-17T05:38:01.621Z,29.01
2018-06-17T05:42:56.033Z,28.61
2018-06-17T05:47:50.432Z,27.50
2018-06-17T05:52:44.831Z,25.96
2018-06-17T05:57:39.406Z,24.96
2018-06-17T06:02:33.526Z,24.38
2018-06-17T06:07:28.017Z,24.24
2018-06-17T06:12:22.461Z,23.57
2018-06-17T06:17:16.899Z,23.33
2018-06-17T06:22:11.059Z,23.38
2018-06-17T06:27:05.621Z,22.84
2018-06-17T06:32:00.025Z,22.97
2018-06-17T06:36:54.476Z,23.77
2018-06-17T06:41:48.912Z,24.24
2018-06-17T06:46:43.448Z,23.87
2018-06-17T06:51:37.855Z,23.88
2018-06-17T06:56:32.281Z,23.97
2018-06-17T07:01:43.510Z,24.22
2018-06-17T07:06:54.960Z,24.81
2018-06-17T07:11:49.360Z,24.84
2018-06-17T07:17:00.514Z,24.56
2018-06-17T07:23:24.356Z,24.64
2018-06-17T07:30:27.419Z,25.29
2018-06-17T07:35:21.912Z,25.28
2018-06-17T07:40:54.981Z,24.73
2018-06-17T07:45:49.427Z,24.66
2018-06-17T07:51:00.581Z,24.59
2018-06-17T07:55:54.989Z,24.87
2018-06-17T08:00:49.422Z,24.69
2018-06-17T08:05:43.857Z,24.43
2018-06-17T08:10:38.257Z,24.54
2018-06-17T08:15:32.654Z,25.27
2018-06-17T08:20:27.065Z,25.47
2018-06-17T08:25:21.539Z,25.43
2018-06-17T08:30:16.196Z,25.47
2018-06-17T08:35:10.619Z,26.01
2018-06-17T08:40:05.049Z,26.59
2018-06-17T08:44:59.457Z,26.01
2018-06-17T08:49:53.857Z,25.94
2018-06-17T08:54:48.280Z,26.24
2018-06-17T08:59:42.827Z,26.25
2018-06-17T09:04:37.278Z,25.97
2018-06-17T09:09:31.707Z,26.01
2018-06-17T09:14:26.171Z,26.85
2018-06-17T09:19:20.624Z,27.33
2018-06-17T09:24:15.075Z,27.27
2018-06-17T09:29:09.511Z,26.88
2018-06-17T09:34:03.928Z,26.93
2018-06-17T09:38:58.730Z,26.82
2018-06-17T09:43:53.191Z,27.12
2018-06-17T09:48:47.330Z,27.66
2018-06-17T09:53:41.764Z,27.71
2018-06-17T09:58:36.413Z,28.07
2018-06-17T10:03:30.853Z,28.60
2018-06-17T10:08:25.279Z,27.79
2018-06-17T10:13:20.300Z,27.82
2018-06-17T10:18:15.825Z,27.95
2018-06-17T10:23:10.736Z,27.96
2018-06-17T10:28:05.884Z,27.77
2018-06-17T10:33:00.309Z,27.40
2018-06-17T10:37:54.727Z,26.97
2018-06-17T10:42:49.559Z,26.27
2018-06-17T10:47:44.794Z,27.35
2018-06-17T10:52:40.456Z,27.58
2018-06-17T10:57:34.988Z,27.81
2018-06-17T11:02:29.594Z,28.11
2018-06-17T11:07:24.092Z,28.59
2018-06-17T11:12:18.527Z,28.82
2018-06-17T11:17:13.043Z,29.38
2018-06-17T11:22:07.553Z,29.57
2018-06-17T11:27:01.973Z,28.21
2018-06-17T11:31:56.393Z,27.66
2018-06-17T11:36:50.845Z,27.59
2018-06-17T11:41:45.296Z,27.23
2018-06-17T11:46:39.808Z,27.75
2018-06-17T11:51:34.249Z,28.15
2018-06-17T11:56:28.674Z,28.95
2018-06-17T12:01:23.093Z,29.47
2018-06-17T12:06:17.531Z,29.02
2018-06-17T12:11:11.953Z,28.22
2018-06-17T12:16:06.397Z,28.15
2018-06-17T12:21:00.864Z,27.05
2018-06-17T12:25:55.301Z,24.96
2018-06-17T12:30:49.704Z,23.94
2018-06-17T12:35:44.160Z,23.74
2018-06-17T12:40:38.755Z,23.43
2018-06-17T12:45:33.142Z,23.03
2018-06-17T12:50:27.680Z,22.68
2018-06-17T12:55:22.096Z,21.69
2018-06-17T13:00:16.576Z,21.58
2018-06-17T13:05:11.056Z,21.92
2018-06-17T13:10:05.692Z,22.35
2018-06-17T13:15:00.177Z,22.95
2018-06-17T13:19:54.595Z,23.36
2018-06-17T13:24:49.040Z,23.72
2018-06-17T13:29:43.572Z,23.61
2018-06-17T13:34:37.987Z,23.73
2018-06-17T13:39:32.456Z,24.04
2018-06-17T13:44:26.973Z,24.07
2018-06-17T13:49:21.482Z,24.64
2018-06-17T13:54:15.901Z,25.13
2018-06-17T13:59:10.337Z,25.09
2018-06-17T14:04:04.818Z,24.77
2018-06-17T14:08:59.285Z,24.53
2018-06-17T14:13:53.708Z,24.59
2018-06-17T14:18:48.164Z,24.66
2018-06-17T14:23:42.760Z,24.66
2018-06-17T14:28:37.251Z,24.62
2018-06-17T14:33:31.639Z,24.66
2018-06-17T14:38:26.041Z,24.51
2018-06-17T14:43:25.431Z,24.30
2018-06-17T14:48:25.038Z,24.02
2018-06-17T14:53:19.611Z,23.65
2018-06-17T14:58:15.179Z,23.56
2018-06-17T15:03:09.714Z,23.58
2018-06-17T15:08:04.247Z,23.75
2018-06-17T15:12:58.859Z,23.80
2018-06-17T15:17:53.261Z,23.89
2018-06-17T15:22:47.780Z,23.77
2018-06-17T15:27:42.220Z,23.72
2018-06-17T15:32:41.434Z,23.99
2018-06-17T15:37:40.900Z,24.24
2018-06-17T15:42:35.378Z,24.43
2018-06-17T15:47:29.816Z,24.41
2018-06-17T15:52:24.246Z,24.62
2018-06-17T15:57:18.720Z,24.62
2018-06-17T16:02:13.251Z,24.48
2018-06-17T16:07:07.697Z,24.19
2018-06-17T16:17:05.929Z,24.36
2018-06-17T16:22:00.384Z,24.15
2018-06-17T16:26:54.848Z,23.94
2018-06-17T16:31:49.373Z,23.54
2018-06-17T16:36:43.816Z,23.10
2018-06-17T16:41:38.258Z,23.03
2018-06-17T16:46:32.778Z,22.62
2018-06-17T16:51:32.301Z,22.46
2018-06-17T16:56:31.869Z,22.27
2018-06-17T17:01:26.362Z,22.20
2018-06-17T17:06:20.787Z,21.77
2018-06-17T17:11:15.221Z,20.84
2018-06-17T17:16:10.037Z,20.00
2018-06-17T17:21:04.589Z,19.48
2018-06-17T17:25:59.520Z,19.15
2018-06-17T17:30:53.979Z,18.83
2018-06-17T17:35:53.595Z,18.79
2018-06-17T17:40:51.793Z,18.79
2018-06-17T17:45:51.257Z,18.83
2018-06-17T17:50:45.669Z,18.81
2018-06-17T17:55:40.085Z,18.75
2018-06-17T18:00:34.570Z,18.86
2018-06-17T18:05:29.001Z,18.96
2018-06-17T18:10:23.118Z,19.05
2018-06-17T18:15:17.549Z,19.13
2018-06-17T18:20:12.047Z,19.14
2018-06-17T18:25:12.400Z,19.25
2018-06-17T18:30:12.135Z,19.21
2018-06-17T18:35:11.873Z,19.23
2018-06-17T18:40:06.365Z,19.20
2018-06-17T18:45:00.830Z,19.19
2018-06-17T18:49:55.298Z,19.17
2018-06-17T18:54:49.762Z,19.18
2018-06-17T18:59:44.213Z,19.15
2018-06-17T19:04:39.167Z,19.19
2018-06-17T19:09:38.931Z,19.27
2018-06-17T19:14:38.457Z,19.23
2018-06-17T19:19:32.876Z,19.20
2018-06-17T19:24:27.280Z,19.13
2018-06-17T19:29:21.745Z,19.00
2018-06-17T19:34:16.178Z,18.84
2018-06-17T19:39:11.834Z,18.64
2018-06-17T19:44:06.432Z,18.50
2018-06-17T19:49:00.876Z,18.51
2018-06-17T19:54:00.521Z,18.58
2018-06-17T19:59:00.154Z,18.55
2018-06-17T20:03:54.562Z,18.62
2018-06-17T20:08:48.983Z,18.70
2018-06-17T20:13:43.447Z,18.62
2018-06-17T20:18:37.945Z,18.64
2018-06-17T20:23:32.361Z,18.74
2018-06-17T20:28:26.807Z,18.64
2018-06-17T20:33:26.391Z,18.63
2018-06-17T20:38:25.900Z,18.64
2018-06-17T20:43:25.395Z,18.64
2018-06-17T20:48:19.836Z,18.59
2018-06-17T20:53:14.236Z,18.61
2018-06-17T20:58:08.375Z,18.65
2018-06-17T21:03:02.781Z,18.62
2018-06-17T21:07:57.240Z,18.58
2018-06-17T21:12:51.698Z,18.52
2018-06-17T21:17:48.838Z,18.47
2018-06-17T21:22:48.322Z,18.46
2018-06-17T21:27:42.792Z,18.40
2018-06-17T21:32:37.837Z,18.34
2018-06-17T21:37:32.333Z,18.34
2018-06-17T21:42:26.773Z,18.34
2018-06-17T21:47:21.211Z,18.39
2018-06-17T21:52:15.628Z,18.36
2018-06-17T21:57:10.086Z,18.32
2018-06-17T22:02:04.588Z,18.32
2018-06-17T22:06:58.723Z,18.31
2018-06-17T22:11:58.140Z,18.28
2018-06-17T22:16:57.786Z,18.29
2018-06-17T22:21:52.272Z,18.34
2018-06-17T22:26:46.663Z,18.33
2018-06-17T22:31:41.151Z,18.28
2018-06-17T22:36:35.572Z,18.23
2018-06-17T22:41:29.988Z,18.18
2018-06-17T22:46:24.400Z,18.18
2018-06-17T22:51:18.855Z,18.18
2018-06-17T22:56:18.532Z,18.17
2018-06-17T23:01:18.136Z,18.18
2018-06-17T23:06:17.749Z,18.16
2018-06-17T23:11:12.180Z,18.11
2018-06-17T23:16:06.654Z,18.09
2018-06-17T23:21:01.058Z,18.09
2018-06-17T23:25:55.467Z,18.04
2018-06-17T23:30:49.897Z,18.06
2018-06-17T23:35:44.302Z,18.00
2018-06-17T23:40:38.728Z,17.96
2018-06-17T23:45:33.113Z,17.98
2018-06-17T23:50:32.749Z,17.95
2018-06-17T23:55:32.396Z,17.94
